createdAt,value
2022-07-27T00:00:05.831Z,100.00
2022-07-27T00:05:27.713Z,100.00
2022-07-27T00:10:50.524Z,100.00
2022-07-27T00:16:12.508Z,100.00
2022-07-27T00:21:34.405Z,100.00
2022-07-27T00:26:59.422Z,100.00
2022-07-27T00:32:21.252Z,100.00
2022-07-27T00:37:43.080Z,100.00
2022-07-27T00:43:04.969Z,100.00
2022-07-27T00:48:27.280Z,100.00
2022-07-27T00:53:51.229Z,100.00
2022-07-27T00:59:14.507Z,100.00
2022-07-27T01:04:37.323Z,100.00
2022-07-27T01:10:00.018Z,100.00
2022-07-27T01:15:22.283Z,100.00
2022-07-27T01:20:44.110Z,100.00
2022-07-27T01:26:05.966Z,100.00
2022-07-27T01:31:28.998Z,100.00
2022-07-27T01:36:52.126Z,100.00
2022-07-27T01:42:13.946Z,100.00
2022-07-27T01:47:35.790Z,100.00
2022-07-27T01:52:57.632Z,100.00
2022-07-27T01:58:19.631Z,100.00
2022-07-27T02:03:41.487Z,100.00
2022-07-27T02:09:03.551Z,100.00
2022-07-27T02:14:25.427Z,100.00
2022-07-27T02:19:47.290Z,100.00
2022-07-27T02:25:10.328Z,100.00
2022-07-27T02:30:32.455Z,100.00
2022-07-27T02:35:54.309Z,100.00
2022-07-27T02:41:16.152Z,100.00
2022-07-27T02:46:38.048Z,100.00
2022-07-27T02:51:59.934Z,100.00
2022-07-27T02:57:21.748Z,100.00
2022-07-27T03:02:47.771Z,100.00
2022-07-27T03:08:09.759Z,99.57
2022-07-27T03:13:31.938Z,98.86
2022-07-27T03:18:53.800Z,95.56
2022-07-27T03:24:15.589Z,95.99
2022-07-27T03:29:37.443Z,95.64
2022-07-27T03:34:59.295Z,97.46
2022-07-27T03:40:21.374Z,96.30
2022-07-27T03:45:43.298Z,96.54
2022-07-27T03:51:05.338Z,95.80
2022-07-27T03:56:27.191Z,94.94
2022-07-27T04:01:48.986Z,93.37
2022-07-27T04:07:10.814Z,93.31
2022-07-27T04:12:32.766Z,91.00
2022-07-27T04:17:57.952Z,89.65
2022-07-27T04:23:19.887Z,89.92
2022-07-27T04:28:41.806Z,88.29
2022-07-27T04:34:03.612Z,82.99
2022-07-27T04:39:25.422Z,76.44
2022-07-27T04:44:47.219Z,68.40
2022-07-27T04:50:09.119Z,58.36
2022-07-27T04:55:30.911Z,41.35
2022-07-27T05:00:52.746Z,48.66
2022-07-27T05:06:14.607Z,48.71
2022-07-27T05:11:36.448Z,37.18
2022-07-27T05:16:58.392Z,32.24
2022-07-27T05:22:20.230Z,30.82
2022-07-27T05:27:54.061Z,32.24
2022-07-27T05:33:16.656Z,30.75
2022-07-27T05:38:39.750Z,33.46
2022-07-27T05:44:01.549Z,33.35
2022-07-27T05:49:23.539Z,32.46
2022-07-27T05:54:45.401Z,31.78
2022-07-27T06:00:08.909Z,30.33
2022-07-27T06:05:30.746Z,29.90
2022-07-27T06:10:52.591Z,29.58
2022-07-27T06:16:14.448Z,27.36
2022-07-27T06:21:36.518Z,26.31
2022-07-27T06:26:58.357Z,25.45
2022-07-27T06:32:20.187Z,25.05
2022-07-27T06:37:42.030Z,26.43
2022-07-27T06:43:03.985Z,23.20
2022-07-27T06:48:26.190Z,24.31
2022-07-27T06:53:47.997Z,23.33
2022-07-27T06:59:10.149Z,22.80
2022-07-27T07:04:32.247Z,21.72
2022-07-27T07:09:54.135Z,20.95
2022-07-27T07:15:15.946Z,19.72
2022-07-27T07:20:38.441Z,19.68
2022-07-27T07:26:00.304Z,18.44
2022-07-27T07:31:22.145Z,18.08
2022-07-27T07:36:44.010Z,17.84
2022-07-27T07:42:05.824Z,18.53
2022-07-27T07:47:32.983Z,19.18
2022-07-27T07:52:55.232Z,17.03
2022-07-27T07:58:17.082Z,18.58
2022-07-27T08:03:39.053Z,20.68
2022-07-27T08:09:00.903Z,20.78
2022-07-27T08:14:22.859Z,18.98
2022-07-27T08:19:44.771Z,18.20
2022-07-27T08:25:08.260Z,19.43
2022-07-27T08:30:30.474Z,17.91
2022-07-27T08:35:54.853Z,18.06
2022-07-27T08:41:22.193Z,18.35
2022-07-27T08:46:44.953Z,18.86
2022-07-27T08:52:09.281Z,18.97
2022-07-27T08:57:31.163Z,20.97
2022-07-27T09:02:53.261Z,21.56
2022-07-27T09:08:17.552Z,22.78
2022-07-27T09:13:39.316Z,26.21
2022-07-27T09:19:08.409Z,24.78
2022-07-27T09:24:46.133Z,25.29
2022-07-27T09:30:16.272Z,25.58
2022-07-27T09:35:38.174Z,26.96
2022-07-27T09:41:01.409Z,27.40
2022-07-27T09:46:40.846Z,27.39
2022-07-27T09:52:04.517Z,28.19
2022-07-27T09:57:26.516Z,31.09
2022-07-27T10:02:49.715Z,28.80
2022-07-27T10:08:11.752Z,28.90
2022-07-27T10:13:43.459Z,29.34
2022-07-27T10:19:08.592Z,30.79
2022-07-27T10:24:32.474Z,29.61
2022-07-27T10:29:55.425Z,29.79
2022-07-27T10:35:46.747Z,30.41
2022-07-27T10:41:28.391Z,30.05
2022-07-27T10:47:04.253Z,31.85
2022-07-27T10:53:02.603Z,33.58
2022-07-27T10:58:24.360Z,33.65
2022-07-27T11:03:47.053Z,33.59
2022-07-27T11:14:53.223Z,34.07
2022-07-27T11:20:15.048Z,33.56
2022-07-27T11:25:36.956Z,33.61
2022-07-27T11:31:03.194Z,34.78
2022-07-27T11:36:42.575Z,34.49
2022-07-27T11:42:09.011Z,36.12
2022-07-27T11:47:34.343Z,35.36
2022-07-27T11:53:01.443Z,34.55
2022-07-27T11:58:23.767Z,35.76
2022-07-27T12:03:46.998Z,34.91
2022-07-27T12:09:13.095Z,35.46
2022-07-27T12:14:42.586Z,35.24
2022-07-27T12:20:09.502Z,35.56
2022-07-27T12:25:31.313Z,34.64
2022-07-27T12:30:53.254Z,33.86
2022-07-27T12:36:25.986Z,34.75
2022-07-27T12:41:47.814Z,35.41
2022-07-27T12:47:10.698Z,36.45
2022-07-27T12:52:34.558Z,37.05
2022-07-27T12:57:57.228Z,35.57
2022-07-27T13:03:19.344Z,35.75
2022-07-27T13:08:41.152Z,35.62
2022-07-27T13:14:02.988Z,36.53
2022-07-27T13:19:24.848Z,35.82
2022-07-27T13:24:46.700Z,36.27
2022-07-27T13:30:11.509Z,36.44
2022-07-27T13:35:33.393Z,37.99
2022-07-27T13:40:55.382Z,36.60
2022-07-27T13:46:17.267Z,35.51
2022-07-27T13:51:39.564Z,35.55
2022-07-27T13:57:01.387Z,36.84
2022-07-27T14:02:25.204Z,37.43
2022-07-27T14:07:47.754Z,37.43
2022-07-27T14:13:12.345Z,36.58
2022-07-27T14:18:34.725Z,36.72
2022-07-27T14:23:56.537Z,35.98
2022-07-27T14:29:19.228Z,37.39
2022-07-27T14:34:41.091Z,37.11
2022-07-27T14:40:05.089Z,37.93
2022-07-27T14:45:45.141Z,38.09
2022-07-27T14:51:08.205Z,39.08
2022-07-27T14:56:30.051Z,39.15
2022-07-27T15:01:51.990Z,38.58
2022-07-27T15:07:13.961Z,37.56
2022-07-27T15:12:38.033Z,37.70
2022-07-27T15:18:00.074Z,37.90
2022-07-27T15:23:21.917Z,38.21
2022-07-27T15:28:44.057Z,37.55
2022-07-27T15:34:05.962Z,38.42
2022-07-27T15:39:27.784Z,38.19
2022-07-27T15:44:49.635Z,39.28
2022-07-27T15:50:11.493Z,39.04
2022-07-27T15:55:33.806Z,40.40
2022-07-27T16:00:57.684Z,40.40
2022-07-27T16:06:20.204Z,40.66
2022-07-27T16:11:42.177Z,41.35
2022-07-27T16:17:04.045Z,41.02
2022-07-27T16:22:25.864Z,40.76
2022-07-27T16:27:47.669Z,40.69
2022-07-27T16:33:09.503Z,42.22
2022-07-27T16:38:31.429Z,42.89
2022-07-27T16:43:53.301Z,42.80
2022-07-27T16:49:15.876Z,42.48
2022-07-27T16:54:39.855Z,42.48
2022-07-27T17:00:01.911Z,43.07
2022-07-27T17:05:24.078Z,42.79
2022-07-27T17:10:46.136Z,43.44
2022-07-27T17:16:10.157Z,42.80
2022-07-27T17:21:32.015Z,43.27
2022-07-27T17:26:53.895Z,44.46
2022-07-27T17:32:15.825Z,44.43
2022-07-27T17:38:03.350Z,45.73
2022-07-27T17:43:19.581Z,46.74
2022-07-27T17:48:41.516Z,46.96
2022-07-27T17:54:03.576Z,47.54
2022-07-27T17:59:37.444Z,47.69
2022-07-27T18:04:59.659Z,48.37
2022-07-27T18:10:21.679Z,48.15
2022-07-27T18:15:43.634Z,48.02
2022-07-27T18:21:05.893Z,48.05
2022-07-27T18:26:27.731Z,48.16
2022-07-27T18:31:49.574Z,48.70
2022-07-27T18:37:11.400Z,49.35
2022-07-27T18:42:33.239Z,49.50
2022-07-27T18:47:55.073Z,50.30
2022-07-27T18:58:38.797Z,51.62
2022-07-27T19:04:02.673Z,51.51
2022-07-27T19:09:25.203Z,51.41
2022-07-27T19:14:50.290Z,51.16
2022-07-27T19:20:13.828Z,51.76
2022-07-27T19:25:35.657Z,52.45
2022-07-27T19:30:57.549Z,52.37
2022-07-27T19:36:20.311Z,52.36
2022-07-27T19:41:42.570Z,52.90
2022-07-27T19:47:04.484Z,52.80
2022-07-27T19:52:26.332Z,53.10
2022-07-27T19:57:48.138Z,53.50
2022-07-27T20:03:09.944Z,54.22
2022-07-27T20:08:31.766Z,54.41
2022-07-27T20:13:53.748Z,53.32
2022-07-27T20:19:15.832Z,52.35
2022-07-27T20:24:38.227Z,50.63
2022-07-27T20:30:00.059Z,50.03
2022-07-27T20:35:22.007Z,50.03
2022-07-27T20:40:43.894Z,50.66
2022-07-27T20:46:05.837Z,50.45
2022-07-27T20:51:27.731Z,50.54
2022-07-27T20:56:49.573Z,50.70
2022-07-27T21:02:11.430Z,50.85
2022-07-27T21:07:33.412Z,50.22
2022-07-27T21:12:55.255Z,50.39
2022-07-27T21:18:17.141Z,50.28
2022-07-27T21:23:39.022Z,49.91
2022-07-27T21:29:00.836Z,50.20
2022-07-27T21:34:24.775Z,49.90
2022-07-27T21:39:46.582Z,49.96
2022-07-27T21:45:08.821Z,49.60
2022-07-27T21:50:30.683Z,49.10
2022-07-27T21:55:52.567Z,48.86
2022-07-27T22:01:15.911Z,48.63
2022-07-27T22:06:39.783Z,49.01
2022-07-27T22:12:01.629Z,49.23
2022-07-27T22:17:23.440Z,49.63
2022-07-27T22:22:45.526Z,50.09
2022-07-27T22:28:07.556Z,50.19
2022-07-27T22:33:29.403Z,50.05
2022-07-27T22:38:51.221Z,50.80
2022-07-27T22:44:13.393Z,51.44
2022-07-27T22:49:38.217Z,51.79
2022-07-27T22:55:01.379Z,51.85
2022-07-27T23:00:23.243Z,52.48
2022-07-27T23:05:45.065Z,52.86
2022-07-27T23:11:06.985Z,53.26
2022-07-27T23:16:29.049Z,53.88
2022-07-27T23:21:51.748Z,54.05
2022-07-27T23:27:15.711Z,54.87
2022-07-27T23:32:37.552Z,55.44
2022-07-27T23:37:59.419Z,55.62
2022-07-27T23:43:21.273Z,55.69
2022-07-27T23:48:43.103Z,56.67
2022-07-27T23:54:05.236Z,57.06
2022-07-27T23:59:27.129Z,57.64
